Terminal Aerodrome Forecast
Issued by NWS

Home | Current Version | Previous Version | Graphics & Text | Print | Product List | Glossary On
Versions: 1 2 3 4 5 6 7 8 9 10 11 12 13 14 15
803
FTUS42 KMHX 160551 CCA
TAFPGV
TAF COR
KPGV 160551Z 1606/1706 00000KT P6SM SKC
     FM161000 VRB03KT 4SM BR SCT010 BKN035
     FM161300 VRB03KT 4SM BR BKN010
     FM161500 VRB03KT P6SM SCT010
     FM161600 VRB03KT P6SM SKC
      AMD LTD TO CLD VIS AND WIND=

USA.gov is the U.S. government's official web portal to all federal, state and local government web resources and services.